sensor_id;sensor_type;location;lat;lon;timestamp;P1;durP1;ratioP1;P2;durP2;ratioP2
19782;SDS011;10051;40.294;-3.754;2024-01-25T00:01:16;11.02;;;5.57;;
19782;SDS011;10051;40.294;-3.754;2024-01-25T00:03:42;10.88;;;5.35;;
19782;SDS011;10051;40.294;-3.754;2024-01-25T00:06:08;10.30;;;5.47;;
19782;SDS011;10051;40.294;-3.754;2024-01-25T00:08:34;10.63;;;5.20;;
19782;SDS011;10051;40.294;-3.754;2024-01-25T00:11:01;9.82;;;5.40;;
19782;SDS011;10051;40.294;-3.754;2024-01-25T00:13:27;9.98;;;5.43;;
19782;SDS011;10051;40.294;-3.754;2024-01-25T00:15:53;11.27;;;5.53;;
19782;SDS011;10051;40.294;-3.754;2024-01-25T00:18:19;10.35;;;5.75;;
19782;SDS011;10051;40.294;-3.754;2024-01-25T00:20:44;11.43;;;5.57;;
19782;SDS011;10051;40.294;-3.754;2024-01-25T00:23:10;11.95;;;5.60;;
19782;SDS011;10051;40.294;-3.754;2024-01-25T00:25:36;9.55;;;5.30;;
19782;SDS011;10051;40.294;-3.754;2024-01-25T00:28:02;9.80;;;5.20;;
19782;SDS011;10051;40.294;-3.754;2024-01-25T00:30:28;9.32;;;5.45;;
19782;SDS011;10051;40.294;-3.754;2024-01-25T00:32:54;8.43;;;5.30;;
19782;SDS011;10051;40.294;-3.754;2024-01-25T00:35:19;9.20;;;5.35;;
19782;SDS011;10051;40.294;-3.754;2024-01-25T00:37:45;12.65;;;5.30;;
19782;SDS011;10051;40.294;-3.754;2024-01-25T00:40:13;10.55;;;5.13;;
19782;SDS011;10051;40.294;-3.754;2024-01-25T00:42:42;8.82;;;5.18;;
19782;SDS011;10051;40.294;-3.754;2024-01-25T00:45:10;10.10;;;5.50;;
19782;SDS011;10051;40.294;-3.754;2024-01-25T00:47:36;13.05;;;5.10;;
19782;SDS011;10051;40.294;-3.754;2024-01-25T00:50:03;8.93;;;5.00;;
19782;SDS011;10051;40.294;-3.754;2024-01-25T00:52:30;9.80;;;4.88;;
19782;SDS011;10051;40.294;-3.754;2024-01-25T00:54:56;10.02;;;4.82;;
19782;SDS011;10051;40.294;-3.754;2024-01-25T00:57:22;9.45;;;4.88;;
19782;SDS011;10051;40.294;-3.754;2024-01-25T00:59:47;9.80;;;5.10;;
19782;SDS011;10051;40.294;-3.754;2024-01-25T01:02:13;7.65;;;4.53;;
19782;SDS011;10051;40.294;-3.754;2024-01-25T01:04:40;7.57;;;4.53;;
19782;SDS011;10051;40.294;-3.754;2024-01-25T01:07:06;8.55;;;4.60;;
19782;SDS011;10051;40.294;-3.754;2024-01-25T01:09:32;7.60;;;4.40;;
19782;SDS011;10051;40.294;-3.754;2024-01-25T01:11:58;6.60;;;4.40;;
19782;SDS011;10051;40.294;-3.754;2024-01-25T01:14:24;9.27;;;5.13;;
19782;SDS011;10051;40.294;-3.754;2024-01-25T01:16:49;7.63;;;4.55;;
19782;SDS011;10051;40.294;-3.754;2024-01-25T01:19:15;7.07;;;4.50;;
19782;SDS011;10051;40.294;-3.754;2024-01-25T01:21:42;7.68;;;4.80;;
19782;SDS011;10051;40.294;-3.754;2024-01-25T01:24:12;7.10;;;4.50;;
19782;SDS011;10051;40.294;-3.754;2024-01-25T01:26:38;7.57;;;4.40;;
19782;SDS011;10051;40.294;-3.754;2024-01-25T01:29:03;9.45;;;4.57;;
19782;SDS011;10051;40.294;-3.754;2024-01-25T01:31:29;7.32;;;4.63;;
19782;SDS011;10051;40.294;-3.754;2024-01-25T01:33:55;6.97;;;4.60;;
19782;SDS011;10051;40.294;-3.754;2024-01-25T01:36:23;9.45;;;5.00;;
19782;SDS011;10051;40.294;-3.754;2024-01-25T01:38:48;15.80;;;5.57;;
19782;SDS011;10051;40.294;-3.754;2024-01-25T01:41:14;15.25;;;6.22;;
19782;SDS011;10051;40.294;-3.754;2024-01-25T01:43:40;11.38;;;6.32;;
19782;SDS011;10051;40.294;-3.754;2024-01-25T01:46:26;11.77;;;6.15;;
19782;SDS011;10051;40.294;-3.754;2024-01-25T01:49:05;12.20;;;6.38;;
19782;SDS011;10051;40.294;-3.754;2024-01-25T01:51:32;15.50;;;7.25;;
19782;SDS011;10051;40.294;-3.754;2024-01-25T01:54:00;12.80;;;6.65;;
19782;SDS011;10051;40.294;-3.754;2024-01-25T01:56:27;11.70;;;6.53;;
19782;SDS011;10051;40.294;-3.754;2024-01-25T01:58:57;10.88;;;6.15;;
19782;SDS011;10051;40.294;-3.754;2024-01-25T02:01:25;13.93;;;7.10;;
19782;SDS011;10051;40.294;-3.754;2024-01-25T02:03:51;11.85;;;6.65;;
19782;SDS011;10051;40.294;-3.754;2024-01-25T02:06:16;14.63;;;6.50;;
19782;SDS011;10051;40.294;-3.754;2024-01-25T02:08:43;11.65;;;5.63;;
19782;SDS011;10051;40.294;-3.754;2024-01-25T02:11:11;9.45;;;5.38;;
19782;SDS011;10051;40.294;-3.754;2024-01-25T02:13:37;9.35;;;5.20;;
19782;SDS011;10051;40.294;-3.754;2024-01-25T02:16:03;6.82;;;4.75;;
19782;SDS011;10051;40.294;-3.754;2024-01-25T02:18:29;9.20;;;4.55;;
19782;SDS011;10051;40.294;-3.754;2024-01-25T02:20:55;8.30;;;4.32;;
19782;SDS011;10051;40.294;-3.754;2024-01-25T02:23:20;7.85;;;3.90;;
19782;SDS011;10051;40.294;-3.754;2024-01-25T02:25:46;9.07;;;4.13;;
19782;SDS011;10051;40.294;-3.754;2024-01-25T02:28:12;7.07;;;4.20;;
19782;SDS011;10051;40.294;-3.754;2024-01-25T02:30:37;8.43;;;4.40;;
19782;SDS011;10051;40.294;-3.754;2024-01-25T02:33:03;7.10;;;4.18;;
19782;SDS011;10051;40.294;-3.754;2024-01-25T02:35:29;7.60;;;4.53;;
19782;SDS011;10051;40.294;-3.754;2024-01-25T02:37:55;7.25;;;4.32;;
19782;SDS011;10051;40.294;-3.754;2024-01-25T02:40:20;7.32;;;4.43;;
19782;SDS011;10051;40.294;-3.754;2024-01-25T02:42:46;9.13;;;5.07;;
19782;SDS011;10051;40.294;-3.754;2024-01-25T02:45:11;8.15;;;4.80;;
19782;SDS011;10051;40.294;-3.754;2024-01-25T02:47:37;8.07;;;5.00;;
19782;SDS011;10051;40.294;-3.754;2024-01-25T02:50:02;10.02;;;5.22;;
19782;SDS011;10051;40.294;-3.754;2024-01-25T02:52:28;9.52;;;5.38;;
19782;SDS011;10051;40.294;-3.754;2024-01-25T02:54:54;10.45;;;5.03;;
19782;SDS011;10051;40.294;-3.754;2024-01-25T02:57:19;7.53;;;4.85;;
19782;SDS011;10051;40.294;-3.754;2024-01-25T02:59:45;9.48;;;5.28;;
19782;SDS011;10051;40.294;-3.754;2024-01-25T03:02:11;7.78;;;5.07;;
19782;SDS011;10051;40.294;-3.754;2024-01-25T03:04:37;8.73;;;5.35;;
19782;SDS011;10051;40.294;-3.754;2024-01-25T03:07:03;8.95;;;5.20;;
19782;SDS011;10051;40.294;-3.754;2024-01-25T03:09:28;8.50;;;5.10;;
19782;SDS011;10051;40.294;-3.754;2024-01-25T03:11:54;11.07;;;5.05;;
19782;SDS011;10051;40.294;-3.754;2024-01-25T03:14:19;9.15;;;5.25;;
19782;SDS011;10051;40.294;-3.754;2024-01-25T03:16:45;9.25;;;4.53;;
19782;SDS011;10051;40.294;-3.754;2024-01-25T03:19:11;8.82;;;4.78;;
19782;SDS011;10051;40.294;-3.754;2024-01-25T03:21:37;7.88;;;4.70;;
19782;SDS011;10051;40.294;-3.754;2024-01-25T03:24:02;8.77;;;4.90;;
19782;SDS011;10051;40.294;-3.754;2024-01-25T03:26:28;7.95;;;4.88;;
19782;SDS011;10051;40.294;-3.754;2024-01-25T03:28:54;8.75;;;4.80;;
19782;SDS011;10051;40.294;-3.754;2024-01-25T03:31:20;7.93;;;4.90;;
19782;SDS011;10051;40.294;-3.754;2024-01-25T03:33:45;9.90;;;4.70;;
19782;SDS011;10051;40.294;-3.754;2024-01-25T03:36:13;9.70;;;4.88;;
19782;SDS011;10051;40.294;-3.754;2024-01-25T03:38:40;8.55;;;4.68;;
19782;SDS011;10051;40.294;-3.754;2024-01-25T03:41:06;8.05;;;4.60;;
19782;SDS011;10051;40.294;-3.754;2024-01-25T03:43:32;7.53;;;4.60;;
19782;SDS011;10051;40.294;-3.754;2024-01-25T03:45:58;8.07;;;4.32;;
19782;SDS011;10051;40.294;-3.754;2024-01-25T03:48:24;7.22;;;4.20;;
19782;SDS011;10051;40.294;-3.754;2024-01-25T03:50:50;6.97;;;4.30;;
19782;SDS011;10051;40.294;-3.754;2024-01-25T03:53:16;8.98;;;4.38;;
19782;SDS011;10051;40.294;-3.754;2024-01-25T03:55:41;6.90;;;4.35;;
19782;SDS011;10051;40.294;-3.754;2024-01-25T03:58:07;8.45;;;4.60;;
19782;SDS011;10051;40.294;-3.754;2024-01-25T04:00:33;9.05;;;4.13;;
19782;SDS011;10051;40.294;-3.754;2024-01-25T04:02:58;7.30;;;4.22;;
19782;SDS011;10051;40.294;-3.754;2024-01-25T04:05:24;6.50;;;4.35;;
19782;SDS011;10051;40.294;-3.754;2024-01-25T04:07:51;7.93;;;4.75;;
19782;SDS011;10051;40.294;-3.754;2024-01-25T04:10:17;7.63;;;4.60;;
19782;SDS011;10051;40.294;-3.754;2024-01-25T04:12:43;10.00;;;5.18;;
19782;SDS011;10051;40.294;-3.754;2024-01-25T04:15:08;7.63;;;4.55;;
19782;SDS011;10051;40.294;-3.754;2024-01-25T04:17:34;8.45;;;4.65;;
19782;SDS011;10051;40.294;-3.754;2024-01-25T04:20:00;8.98;;;4.43;;
19782;SDS011;10051;40.294;-3.754;2024-01-25T04:22:26;7.22;;;4.65;;
19782;SDS011;10051;40.294;-3.754;2024-01-25T04:24:51;8.63;;;4.45;;
19782;SDS011;10051;40.294;-3.754;2024-01-25T04:27:17;8.98;;;4.68;;
19782;SDS011;10051;40.294;-3.754;2024-01-25T04:29:43;8.25;;;4.50;;
19782;SDS011;10051;40.294;-3.754;2024-01-25T04:32:08;8.23;;;4.00;;
19782;SDS011;10051;40.294;-3.754;2024-01-25T04:34:35;8.75;;;4.28;;
19782;SDS011;10051;40.294;-3.754;2024-01-25T04:37:01;8.20;;;4.43;;
19782;SDS011;10051;40.294;-3.754;2024-01-25T04:39:27;8.35;;;4.30;;
19782;SDS011;10051;40.294;-3.754;2024-01-25T04:41:52;8.93;;;4.10;;
19782;SDS011;10051;40.294;-3.754;2024-01-25T04:44:18;8.30;;;4.43;;
19782;SDS011;10051;40.294;-3.754;2024-01-25T04:46:44;7.35;;;4.45;;
19782;SDS011;10051;40.294;-3.754;2024-01-25T04:49:10;6.82;;;4.43;;
19782;SDS011;10051;40.294;-3.754;2024-01-25T04:51:35;7.60;;;4.57;;
19782;SDS011;10051;40.294;-3.754;2024-01-25T04:54:01;10.73;;;4.50;;
19782;SDS011;10051;40.294;-3.754;2024-01-25T04:56:27;7.50;;;4.63;;
19782;SDS011;10051;40.294;-3.754;2024-01-25T04:58:53;7.55;;;4.70;;
19782;SDS011;10051;40.294;-3.754;2024-01-25T05:01:19;7.97;;;4.20;;
19782;SDS011;10051;40.294;-3.754;2024-01-25T05:03:45;6.07;;;3.90;;
19782;SDS011;10051;40.294;-3.754;2024-01-25T05:06:10;7.88;;;4.60;;
19782;SDS011;10051;40.294;-3.754;2024-01-25T05:08:36;7.43;;;4.38;;
19782;SDS011;10051;40.294;-3.754;2024-01-25T05:11:02;7.95;;;4.65;;
19782;SDS011;10051;40.294;-3.754;2024-01-25T05:13:28;6.72;;;4.00;;
19782;SDS011;10051;40.294;-3.754;2024-01-25T05:15:53;9.02;;;4.13;;
19782;SDS011;10051;40.294;-3.754;2024-01-25T05:18:19;7.05;;;4.40;;
19782;SDS011;10051;40.294;-3.754;2024-01-25T05:20:45;7.80;;;4.75;;
19782;SDS011;10051;40.294;-3.754;2024-01-25T05:23:10;7.55;;;4.60;;
19782;SDS011;10051;40.294;-3.754;2024-01-25T05:25:36;8.38;;;4.47;;
19782;SDS011;10051;40.294;-3.754;2024-01-25T05:28:02;9.25;;;4.63;;
19782;SDS011;10051;40.294;-3.754;2024-01-25T05:30:28;6.18;;;4.22;;
19782;SDS011;10051;40.294;-3.754;2024-01-25T05:32:54;7.13;;;4.13;;
19782;SDS011;10051;40.294;-3.754;2024-01-25T05:35:20;6.28;;;4.15;;
19782;SDS011;10051;40.294;-3.754;2024-01-25T05:37:46;8.27;;;4.20;;
19782;SDS011;10051;40.294;-3.754;2024-01-25T05:40:11;6.38;;;4.10;;
19782;SDS011;10051;40.294;-3.754;2024-01-25T05:42:38;7.65;;;3.70;;
19782;SDS011;10051;40.294;-3.754;2024-01-25T05:45:05;5.13;;;3.60;;
19782;SDS011;10051;40.294;-3.754;2024-01-25T05:47:31;6.22;;;3.80;;
19782;SDS011;10051;40.294;-3.754;2024-01-25T05:49:57;7.82;;;4.00;;
19782;SDS011;10051;40.294;-3.754;2024-01-25T05:52:23;7.22;;;4.10;;
19782;SDS011;10051;40.294;-3.754;2024-01-25T05:54:49;8.02;;;3.90;;
19782;SDS011;10051;40.294;-3.754;2024-01-25T05:57:15;6.10;;;3.85;;
19782;SDS011;10051;40.294;-3.754;2024-01-25T05:59:45;6.03;;;3.97;;
19782;SDS011;10051;40.294;-3.754;2024-01-25T06:02:11;5.75;;;4.18;;
19782;SDS011;10051;40.294;-3.754;2024-01-25T06:04:36;6.18;;;3.97;;
19782;SDS011;10051;40.294;-3.754;2024-01-25T06:07:03;8.02;;;4.68;;
19782;SDS011;10051;40.294;-3.754;2024-01-25T06:09:29;8.38;;;4.07;;
19782;SDS011;10051;40.294;-3.754;2024-01-25T06:11:54;10.00;;;4.15;;
19782;SDS011;10051;40.294;-3.754;2024-01-25T06:14:20;7.85;;;4.20;;
19782;SDS011;10051;40.294;-3.754;2024-01-25T06:16:46;7.55;;;4.30;;
19782;SDS011;10051;40.294;-3.754;2024-01-25T06:19:11;8.57;;;4.30;;
19782;SDS011;10051;40.294;-3.754;2024-01-25T06:21:37;8.13;;;4.93;;
19782;SDS011;10051;40.294;-3.754;2024-01-25T06:24:06;8.77;;;4.68;;
19782;SDS011;10051;40.294;-3.754;2024-01-25T06:26:32;8.23;;;4.60;;
19782;SDS011;10051;40.294;-3.754;2024-01-25T06:28:58;15.48;;;7.53;;
19782;SDS011;10051;40.294;-3.754;2024-01-25T06:31:25;19.05;;;9.00;;
19782;SDS011;10051;40.294;-3.754;2024-01-25T06:33:51;15.95;;;8.07;;
19782;SDS011;10051;40.294;-3.754;2024-01-25T06:36:21;14.20;;;7.63;;
19782;SDS011;10051;40.294;-3.754;2024-01-25T06:38:47;12.38;;;7.03;;
19782;SDS011;10051;40.294;-3.754;2024-01-25T06:41:12;15.40;;;7.03;;
19782;SDS011;10051;40.294;-3.754;2024-01-25T06:43:38;10.63;;;6.60;;
19782;SDS011;10051;40.294;-3.754;2024-01-25T06:46:05;11.80;;;6.50;;
19782;SDS011;10051;40.294;-3.754;2024-01-25T06:48:31;17.35;;;6.53;;
19782;SDS011;10051;40.294;-3.754;2024-01-25T06:50:57;10.68;;;6.38;;
19782;SDS011;10051;40.294;-3.754;2024-01-25T06:53:23;12.45;;;7.07;;
19782;SDS011;10051;40.294;-3.754;2024-01-25T06:55:48;12.45;;;6.55;;
19782;SDS011;10051;40.294;-3.754;2024-01-25T06:58:14;13.55;;;6.47;;
19782;SDS011;10051;40.294;-3.754;2024-01-25T07:00:40;15.00;;;6.18;;
19782;SDS011;10051;40.294;-3.754;2024-01-25T07:03:07;9.93;;;5.80;;
19782;SDS011;10051;40.294;-3.754;2024-01-25T07:05:33;11.82;;;6.20;;
19782;SDS011;10051;40.294;-3.754;2024-01-25T07:08:00;9.43;;;5.65;;
19782;SDS011;10051;40.294;-3.754;2024-01-25T07:10:26;11.02;;;5.90;;
19782;SDS011;10051;40.294;-3.754;2024-01-25T07:12:52;9.82;;;5.72;;
19782;SDS011;10051;40.294;-3.754;2024-01-25T07:15:18;13.05;;;6.60;;
19782;SDS011;10051;40.294;-3.754;2024-01-25T07:17:45;9.55;;;5.40;;
19782;SDS011;10051;40.294;-3.754;2024-01-25T07:20:10;13.07;;;6.03;;
19782;SDS011;10051;40.294;-3.754;2024-01-25T07:22:36;10.52;;;5.82;;
19782;SDS011;10051;40.294;-3.754;2024-01-25T07:25:02;14.02;;;6.15;;
19782;SDS011;10051;40.294;-3.754;2024-01-25T07:27:28;9.93;;;5.93;;
19782;SDS011;10051;40.294;-3.754;2024-01-25T07:29:53;12.38;;;6.38;;
19782;SDS011;10051;40.294;-3.754;2024-01-25T07:32:19;10.55;;;5.90;;
19782;SDS011;10051;40.294;-3.754;2024-01-25T07:34:45;9.85;;;5.85;;
19782;SDS011;10051;40.294;-3.754;2024-01-25T07:37:11;11.00;;;5.93;;
19782;SDS011;10051;40.294;-3.754;2024-01-25T07:39:37;10.82;;;6.07;;
19782;SDS011;10051;40.294;-3.754;2024-01-25T07:42:03;13.60;;;6.18;;
19782;SDS011;10051;40.294;-3.754;2024-01-25T07:44:28;12.18;;;6.40;;
19782;SDS011;10051;40.294;-3.754;2024-01-25T07:46:54;12.02;;;6.40;;
19782;SDS011;10051;40.294;-3.754;2024-01-25T07:49:20;13.68;;;6.40;;
19782;SDS011;10051;40.294;-3.754;2024-01-25T07:51:45;11.35;;;6.35;;
19782;SDS011;10051;40.294;-3.754;2024-01-25T07:54:12;18.38;;;6.18;;
19782;SDS011;10051;40.294;-3.754;2024-01-25T07:56:39;13.07;;;5.82;;
19782;SDS011;10051;40.294;-3.754;2024-01-25T07:59:04;11.77;;;6.10;;
19782;SDS011;10051;40.294;-3.754;2024-01-25T08:01:30;11.13;;;6.20;;
19782;SDS011;10051;40.294;-3.754;2024-01-25T08:03:56;12.57;;;6.15;;
19782;SDS011;10051;40.294;-3.754;2024-01-25T08:06:22;13.63;;;6.53;;
19782;SDS011;10051;40.294;-3.754;2024-01-25T08:08:47;15.43;;;6.20;;
19782;SDS011;10051;40.294;-3.754;2024-01-25T08:11:13;11.70;;;6.40;;
19782;SDS011;10051;40.294;-3.754;2024-01-25T08:13:43;13.23;;;6.90;;
19782;SDS011;10051;40.294;-3.754;2024-01-25T08:16:09;14.15;;;7.50;;
19782;SDS011;10051;40.294;-3.754;2024-01-25T08:18:39;16.65;;;7.45;;
19782;SDS011;10051;40.294;-3.754;2024-01-25T08:21:05;17.65;;;6.40;;
19782;SDS011;10051;40.294;-3.754;2024-01-25T08:23:31;14.50;;;6.03;;
19782;SDS011;10051;40.294;-3.754;2024-01-25T08:25:57;13.10;;;5.80;;
19782;SDS011;10051;40.294;-3.754;2024-01-25T08:28:22;13.13;;;6.45;;
19782;SDS011;10051;40.294;-3.754;2024-01-25T08:30:48;13.60;;;5.78;;
19782;SDS011;10051;40.294;-3.754;2024-01-25T08:33:14;14.73;;;5.50;;
19782;SDS011;10051;40.294;-3.754;2024-01-25T08:35:40;10.85;;;5.70;;
19782;SDS011;10051;40.294;-3.754;2024-01-25T08:38:06;12.68;;;5.55;;
19782;SDS011;10051;40.294;-3.754;2024-01-25T08:40:32;13.30;;;5.93;;
19782;SDS011;10051;40.294;-3.754;2024-01-25T08:42:58;14.77;;;5.60;;
19782;SDS011;10051;40.294;-3.754;2024-01-25T08:45:24;13.52;;;5.60;;
19782;SDS011;10051;40.294;-3.754;2024-01-25T08:47:50;15.32;;;5.50;;
19782;SDS011;10051;40.294;-3.754;2024-01-25T08:50:16;13.43;;;5.70;;
19782;SDS011;10051;40.294;-3.754;2024-01-25T08:52:42;10.35;;;5.35;;
19782;SDS011;10051;40.294;-3.754;2024-01-25T08:55:08;12.73;;;5.53;;
19782;SDS011;10051;40.294;-3.754;2024-01-25T08:57:35;11.70;;;5.57;;
19782;SDS011;10051;40.294;-3.754;2024-01-25T09:00:00;14.07;;;6.20;;
19782;SDS011;10051;40.294;-3.754;2024-01-25T09:02:27;11.95;;;6.15;;
19782;SDS011;10051;40.294;-3.754;2024-01-25T09:04:54;11.73;;;6.28;;
19782;SDS011;10051;40.294;-3.754;2024-01-25T09:07:20;11.18;;;5.82;;
19782;SDS011;10051;40.294;-3.754;2024-01-25T09:09:47;13.55;;;5.25;;
19782;SDS011;10051;40.294;-3.754;2024-01-25T09:12:13;10.23;;;5.25;;
19782;SDS011;10051;40.294;-3.754;2024-01-25T09:14:39;8.70;;;5.05;;
19782;SDS011;10051;40.294;-3.754;2024-01-25T09:17:05;11.20;;;5.25;;
19782;SDS011;10051;40.294;-3.754;2024-01-25T09:19:31;11.82;;;5.68;;
19782;SDS011;10051;40.294;-3.754;2024-01-25T09:21:56;9.85;;;5.47;;
19782;SDS011;10051;40.294;-3.754;2024-01-25T09:24:26;11.93;;;5.53;;
19782;SDS011;10051;40.294;-3.754;2024-01-25T09:26:51;10.00;;;5.65;;
19782;SDS011;10051;40.294;-3.754;2024-01-25T09:29:17;16.63;;;6.45;;
19782;SDS011;10051;40.294;-3.754;2024-01-25T09:31:43;15.82;;;6.22;;
19782;SDS011;10051;40.294;-3.754;2024-01-25T09:34:08;13.45;;;5.80;;
19782;SDS011;10051;40.294;-3.754;2024-01-25T09:36:34;13.23;;;5.82;;
19782;SDS011;10051;40.294;-3.754;2024-01-25T09:38:59;11.80;;;5.43;;
19782;SDS011;10051;40.294;-3.754;2024-01-25T09:41:25;13.15;;;5.95;;
19782;SDS011;10051;40.294;-3.754;2024-01-25T09:43:52;11.15;;;5.78;;
19782;SDS011;10051;40.294;-3.754;2024-01-25T09:46:18;11.20;;;5.85;;
19782;SDS011;10051;40.294;-3.754;2024-01-25T09:48:44;9.90;;;6.13;;
19782;SDS011;10051;40.294;-3.754;2024-01-25T09:51:11;9.52;;;5.60;;
19782;SDS011;10051;40.294;-3.754;2024-01-25T09:53:38;15.88;;;5.93;;
19782;SDS011;10051;40.294;-3.754;2024-01-25T09:56:12;13.68;;;5.68;;
19782;SDS011;10051;40.294;-3.754;2024-01-25T10:01:09;11.27;;;6.80;;
19782;SDS011;10051;40.294;-3.754;2024-01-25T10:03:37;13.70;;;7.05;;
19782;SDS011;10051;40.294;-3.754;2024-01-25T10:06:10;15.40;;;7.20;;
19782;SDS011;10051;40.294;-3.754;2024-01-25T10:08:36;17.90;;;7.15;;
19782;SDS011;10051;40.294;-3.754;2024-01-25T10:11:02;20.35;;;9.35;;
19782;SDS011;10051;40.294;-3.754;2024-01-25T10:13:28;15.13;;;7.68;;
19782;SDS011;10051;40.294;-3.754;2024-01-25T10:15:55;10.93;;;6.88;;
19782;SDS011;10051;40.294;-3.754;2024-01-25T10:18:24;13.63;;;7.28;;
19782;SDS011;10051;40.294;-3.754;2024-01-25T10:20:51;12.10;;;7.25;;
19782;SDS011;10051;40.294;-3.754;2024-01-25T10:23:18;13.68;;;6.97;;
19782;SDS011;10051;40.294;-3.754;2024-01-25T10:25:44;13.52;;;6.57;;
19782;SDS011;10051;40.294;-3.754;2024-01-25T10:28:09;17.15;;;7.07;;
19782;SDS011;10051;40.294;-3.754;2024-01-25T10:30:37;16.42;;;6.93;;
19782;SDS011;10051;40.294;-3.754;2024-01-25T10:33:03;13.32;;;6.80;;
19782;SDS011;10051;40.294;-3.754;2024-01-25T10:35:30;16.45;;;6.50;;
19782;SDS011;10051;40.294;-3.754;2024-01-25T10:37:56;14.10;;;6.80;;
19782;SDS011;10051;40.294;-3.754;2024-01-25T10:40:22;15.32;;;6.60;;
19782;SDS011;10051;40.294;-3.754;2024-01-25T10:42:49;10.80;;;6.53;;
19782;SDS011;10051;40.294;-3.754;2024-01-25T10:45:15;19.90;;;7.10;;
19782;SDS011;10051;40.294;-3.754;2024-01-25T10:47:41;18.15;;;6.90;;
19782;SDS011;10051;40.294;-3.754;2024-01-25T10:50:07;17.67;;;8.30;;
19782;SDS011;10051;40.294;-3.754;2024-01-25T10:52:34;18.58;;;8.13;;
19782;SDS011;10051;40.294;-3.754;2024-01-25T10:55:02;16.85;;;8.15;;
19782;SDS011;10051;40.294;-3.754;2024-01-25T10:57:36;16.70;;;7.93;;
19782;SDS011;10051;40.294;-3.754;2024-01-25T11:00:05;21.30;;;8.60;;
19782;SDS011;10051;40.294;-3.754;2024-01-25T11:02:34;21.25;;;7.80;;
19782;SDS011;10051;40.294;-3.754;2024-01-25T11:05:00;25.58;;;7.97;;
19782;SDS011;10051;40.294;-3.754;2024-01-25T11:07:28;14.73;;;6.88;;
19782;SDS011;10051;40.294;-3.754;2024-01-25T11:09:54;18.73;;;6.82;;
19782;SDS011;10051;40.294;-3.754;2024-01-25T11:12:20;16.40;;;7.72;;
19782;SDS011;10051;40.294;-3.754;2024-01-25T11:14:53;19.58;;;8.68;;
19782;SDS011;10051;40.294;-3.754;2024-01-25T11:17:21;19.63;;;8.02;;
19782;SDS011;10051;40.294;-3.754;2024-01-25T11:19:50;16.55;;;7.32;;
19782;SDS011;10051;40.294;-3.754;2024-01-25T11:22:16;23.20;;;7.20;;
19782;SDS011;10051;40.294;-3.754;2024-01-25T11:24:42;16.83;;;7.05;;
19782;SDS011;10051;40.294;-3.754;2024-01-25T11:27:09;11.13;;;6.50;;
19782;SDS011;10051;40.294;-3.754;2024-01-25T11:29:38;12.73;;;6.53;;
19782;SDS011;10051;40.294;-3.754;2024-01-25T11:32:04;17.40;;;6.82;;
19782;SDS011;10051;40.294;-3.754;2024-01-25T11:34:31;18.35;;;7.20;;
19782;SDS011;10051;40.294;-3.754;2024-01-25T11:36:56;11.80;;;6.82;;
19782;SDS011;10051;40.294;-3.754;2024-01-25T11:39:25;17.70;;;6.45;;
19782;SDS011;10051;40.294;-3.754;2024-01-25T11:41:51;18.13;;;6.40;;
19782;SDS011;10051;40.294;-3.754;2024-01-25T11:44:17;17.63;;;6.20;;
19782;SDS011;10051;40.294;-3.754;2024-01-25T11:46:43;19.33;;;6.65;;
19782;SDS011;10051;40.294;-3.754;2024-01-25T11:49:11;12.95;;;6.30;;
19782;SDS011;10051;40.294;-3.754;2024-01-25T11:51:37;13.48;;;6.45;;
19782;SDS011;10051;40.294;-3.754;2024-01-25T11:54:02;13.55;;;6.60;;
19782;SDS011;10051;40.294;-3.754;2024-01-25T11:56:33;16.70;;;5.97;;
19782;SDS011;10051;40.294;-3.754;2024-01-25T11:59:00;12.15;;;5.85;;
19782;SDS011;10051;40.294;-3.754;2024-01-25T12:01:28;13.10;;;5.80;;
19782;SDS011;10051;40.294;-3.754;2024-01-25T12:03:55;12.50;;;5.55;;
19782;SDS011;10051;40.294;-3.754;2024-01-25T12:06:21;9.43;;;4.40;;
19782;SDS011;10051;40.294;-3.754;2024-01-25T12:08:47;8.82;;;3.50;;
19782;SDS011;10051;40.294;-3.754;2024-01-25T12:11:13;14.60;;;4.30;;
19782;SDS011;10051;40.294;-3.754;2024-01-25T12:13:40;13.65;;;4.50;;
19782;SDS011;10051;40.294;-3.754;2024-01-25T12:16:10;12.13;;;5.00;;
19782;SDS011;10051;40.294;-3.754;2024-01-25T12:18:37;13.57;;;4.40;;
19782;SDS011;10051;40.294;-3.754;2024-01-25T12:21:04;12.02;;;5.00;;
19782;SDS011;10051;40.294;-3.754;2024-01-25T12:23:34;13.65;;;4.88;;
19782;SDS011;10051;40.294;-3.754;2024-01-25T12:26:01;9.32;;;4.53;;
19782;SDS011;10051;40.294;-3.754;2024-01-25T12:28:31;13.50;;;4.88;;
19782;SDS011;10051;40.294;-3.754;2024-01-25T12:31:00;11.70;;;5.70;;
19782;SDS011;10051;40.294;-3.754;2024-01-25T12:33:28;9.50;;;5.28;;
19782;SDS011;10051;40.294;-3.754;2024-01-25T12:35:55;8.75;;;5.22;;
19782;SDS011;10051;40.294;-3.754;2024-01-25T12:38:21;10.02;;;5.20;;
19782;SDS011;10051;40.294;-3.754;2024-01-25T12:40:48;15.20;;;5.32;;
19782;SDS011;10051;40.294;-3.754;2024-01-25T12:43:18;9.95;;;4.93;;
19782;SDS011;10051;40.294;-3.754;2024-01-25T12:45:44;8.63;;;4.60;;
19782;SDS011;10051;40.294;-3.754;2024-01-25T12:48:10;8.63;;;4.72;;
19782;SDS011;10051;40.294;-3.754;2024-01-25T12:50:36;12.27;;;5.38;;
19782;SDS011;10051;40.294;-3.754;2024-01-25T12:53:03;11.57;;;5.97;;
19782;SDS011;10051;40.294;-3.754;2024-01-25T12:55:29;12.95;;;6.45;;
19782;SDS011;10051;40.294;-3.754;2024-01-25T12:57:56;14.07;;;7.40;;
19782;SDS011;10051;40.294;-3.754;2024-01-25T13:00:22;13.48;;;6.90;;
19782;SDS011;10051;40.294;-3.754;2024-01-25T13:02:48;14.25;;;7.03;;
19782;SDS011;10051;40.294;-3.754;2024-01-25T13:05:14;14.65;;;7.22;;
19782;SDS011;10051;40.294;-3.754;2024-01-25T13:07:40;11.43;;;6.82;;
19782;SDS011;10051;40.294;-3.754;2024-01-25T13:10:06;14.50;;;7.00;;
19782;SDS011;10051;40.294;-3.754;2024-01-25T13:12:33;12.15;;;6.53;;
19782;SDS011;10051;40.294;-3.754;2024-01-25T13:14:59;11.43;;;6.13;;
19782;SDS011;10051;40.294;-3.754;2024-01-25T13:17:25;10.68;;;6.00;;
19782;SDS011;10051;40.294;-3.754;2024-01-25T13:19:52;12.52;;;6.32;;
19782;SDS011;10051;40.294;-3.754;2024-01-25T13:22:18;10.95;;;6.22;;
19782;SDS011;10051;40.294;-3.754;2024-01-25T13:24:46;10.30;;;6.20;;
19782;SDS011;10051;40.294;-3.754;2024-01-25T13:27:12;11.15;;;6.07;;
19782;SDS011;10051;40.294;-3.754;2024-01-25T13:29:38;9.10;;;5.60;;
19782;SDS011;10051;40.294;-3.754;2024-01-25T13:32:03;10.00;;;5.13;;
19782;SDS011;10051;40.294;-3.754;2024-01-25T13:34:29;9.20;;;4.40;;
19782;SDS011;10051;40.294;-3.754;2024-01-25T13:36:54;14.20;;;5.05;;
19782;SDS011;10051;40.294;-3.754;2024-01-25T13:39:20;10.25;;;4.88;;
19782;SDS011;10051;40.294;-3.754;2024-01-25T13:41:46;9.60;;;4.60;;
19782;SDS011;10051;40.294;-3.754;2024-01-25T13:44:16;13.55;;;4.50;;
19782;SDS011;10051;40.294;-3.754;2024-01-25T13:46:41;13.88;;;4.78;;
19782;SDS011;10051;40.294;-3.754;2024-01-25T13:49:07;11.35;;;4.25;;
19782;SDS011;10051;40.294;-3.754;2024-01-25T13:51:33;7.93;;;4.00;;
19782;SDS011;10051;40.294;-3.754;2024-01-25T13:53:58;11.43;;;4.10;;
19782;SDS011;10051;40.294;-3.754;2024-01-25T13:56:24;12.43;;;4.00;;
19782;SDS011;10051;40.294;-3.754;2024-01-25T13:58:49;11.73;;;4.30;;
19782;SDS011;10051;40.294;-3.754;2024-01-25T14:01:16;10.13;;;4.03;;
19782;SDS011;10051;40.294;-3.754;2024-01-25T14:03:41;10.38;;;3.78;;
19782;SDS011;10051;40.294;-3.754;2024-01-25T14:06:07;13.93;;;3.95;;
19782;SDS011;10051;40.294;-3.754;2024-01-25T14:08:35;9.77;;;4.40;;
19782;SDS011;10051;40.294;-3.754;2024-01-25T14:11:01;7.82;;;3.70;;
19782;SDS011;10051;40.294;-3.754;2024-01-25T14:13:27;13.35;;;4.30;;
19782;SDS011;10051;40.294;-3.754;2024-01-25T14:15:52;10.35;;;6.95;;
19782;SDS011;10051;40.294;-3.754;2024-01-25T14:18:18;8.45;;;4.68;;
19782;SDS011;10051;40.294;-3.754;2024-01-25T14:20:43;7.00;;;3.60;;
19782;SDS011;10051;40.294;-3.754;2024-01-25T14:23:09;45.83;;;24.70;;